createdAt,value
2018-03-08T00:00:52.729Z,4.80
2018-03-08T00:04:55.992Z,4.80
2018-03-08T00:08:59.313Z,4.80
2018-03-08T00:13:02.307Z,4.80
2018-03-08T00:17:05.273Z,4.80
2018-03-08T00:21:12.382Z,4.80
2018-03-08T00:25:14.910Z,4.90
2018-03-08T00:29:17.452Z,4.90
2018-03-08T00:33:20.378Z,4.90
2018-03-08T00:37:23.499Z,4.90
2018-03-08T00:41:26.419Z,4.80
2018-03-08T00:45:29.726Z,4.80
2018-03-08T00:49:32.228Z,4.90
2018-03-08T00:53:35.205Z,4.90
2018-03-08T00:57:38.500Z,4.80
2018-03-08T01:01:41.063Z,4.70
2018-03-08T01:05:43.565Z,4.90
2018-03-08T01:09:47.055Z,4.80
2018-03-08T01:13:50.342Z,4.80
2018-03-08T01:17:52.893Z,4.70
2018-03-08T01:21:55.796Z,4.60
2018-03-08T01:25:59.564Z,4.60
2018-03-08T01:30:04.432Z,4.60
2018-03-08T01:34:07.469Z,4.60
2018-03-08T01:38:10.002Z,4.50
2018-03-08T01:42:12.643Z,4.40
2018-03-08T01:46:15.553Z,4.40
2018-03-08T01:50:18.493Z,4.30
2018-03-08T01:54:21.794Z,4.30
2018-03-08T01:58:25.336Z,4.30
2018-03-08T02:02:28.641Z,4.20
2018-03-08T02:06:31.671Z,4.10
2018-03-08T02:10:34.571Z,4.10
2018-03-08T02:14:37.879Z,4.10
2018-03-08T02:18:40.672Z,4.10
2018-03-08T02:22:44.004Z,3.90
2018-03-08T02:26:47.318Z,3.90
2018-03-08T02:30:49.910Z,3.90
2018-03-08T02:34:53.188Z,3.90
2018-03-08T02:38:56.850Z,3.80
2018-03-08T02:43:00.652Z,3.80
2018-03-08T02:47:04.198Z,3.70
2018-03-08T02:51:07.478Z,3.70
2018-03-08T02:55:11.398Z,3.60
2018-03-08T02:59:14.355Z,3.60
2018-03-08T03:03:17.683Z,3.60
2018-03-08T03:07:20.188Z,3.50
2018-03-08T03:11:23.503Z,3.40
2018-03-08T03:15:26.793Z,3.30
2018-03-08T03:19:32.706Z,3.40
2018-03-08T03:23:36.725Z,3.40
2018-03-08T03:27:39.284Z,3.40
2018-03-08T03:31:42.574Z,3.30
2018-03-08T03:35:45.524Z,3.30
2018-03-08T03:39:48.831Z,3.20
2018-03-08T03:43:51.396Z,3.30
2018-03-08T03:47:54.704Z,3.30
2018-03-08T03:51:58.021Z,3.30
2018-03-08T03:56:02.563Z,3.30
2018-03-08T04:00:05.589Z,3.40
2018-03-08T04:04:08.521Z,3.30
2018-03-08T04:08:11.456Z,3.30
2018-03-08T04:12:17.654Z,3.30
2018-03-08T04:16:20.899Z,3.20
2018-03-08T04:20:24.274Z,3.10
2018-03-08T04:24:27.238Z,3.20
2018-03-08T04:28:30.169Z,3.20
2018-03-08T04:32:32.736Z,3.10
2018-03-08T04:36:36.756Z,3.00
2018-03-08T04:40:40.152Z,3.00
2018-03-08T04:44:42.692Z,3.00
2018-03-08T04:48:45.949Z,2.90
2018-03-08T04:52:48.468Z,2.80
2018-03-08T04:56:51.466Z,2.90
2018-03-08T05:00:53.995Z,2.90
2018-03-08T05:04:56.961Z,2.80
2018-03-08T05:09:00.237Z,3.50
2018-03-08T05:13:03.555Z,2.90
2018-03-08T05:17:06.865Z,2.90
2018-03-08T05:21:10.185Z,2.90
2018-03-08T05:25:13.096Z,3.00
2018-03-08T05:29:17.448Z,3.20
2018-03-08T05:33:20.372Z,3.30
2018-03-08T05:37:24.712Z,3.30
2018-03-08T05:41:27.992Z,3.40
2018-03-08T05:45:31.280Z,3.50
2018-03-08T05:49:34.560Z,3.50
2018-03-08T05:53:37.489Z,3.50
2018-03-08T05:57:40.773Z,3.50
2018-03-08T06:01:43.797Z,3.40
2018-03-08T06:05:46.351Z,3.40
2018-03-08T06:09:49.307Z,3.50
2018-03-08T06:13:52.768Z,3.50
2018-03-08T06:17:55.984Z,3.60
2018-03-08T06:22:00.359Z,3.70
2018-03-08T06:26:07.579Z,3.70
2018-03-08T06:30:10.931Z,3.70
2018-03-08T06:34:17.964Z,3.70
2018-03-08T06:38:21.266Z,3.80
2018-03-08T06:42:24.664Z,3.80
2018-03-08T06:46:27.572Z,3.80
2018-03-08T06:50:30.509Z,3.80
2018-03-08T06:59:02.875Z,3.90
2018-03-08T07:03:06.210Z,3.80
2018-03-08T07:07:09.605Z,3.70
2018-03-08T07:11:12.136Z,3.70
2018-03-08T07:15:15.453Z,3.80
2018-03-08T07:19:18.766Z,3.80
2018-03-08T07:23:22.936Z,4.00
2018-03-08T07:27:25.933Z,4.10
2018-03-08T07:31:30.243Z,4.20
2018-03-08T07:35:32.749Z,4.20
2018-03-08T07:39:36.059Z,4.20
2018-03-08T07:43:38.968Z,4.20
2018-03-08T07:47:42.312Z,4.20
2018-03-08T07:51:46.155Z,4.20
2018-03-08T07:55:49.198Z,4.30
2018-03-08T07:59:51.730Z,4.50
2018-03-08T08:03:55.032Z,4.50
2018-03-08T08:08:10.927Z,4.40
2018-03-08T08:12:13.906Z,4.50
2018-03-08T08:16:16.849Z,4.50
2018-03-08T08:20:20.155Z,4.80
2018-03-08T08:24:24.519Z,5.20
2018-03-08T08:28:27.801Z,5.60
2018-03-08T08:32:30.322Z,6.90
2018-03-08T08:36:33.344Z,8.70
2018-03-08T08:40:35.870Z,10.10
2018-03-08T08:44:38.823Z,11.00
2018-03-08T08:48:41.355Z,12.10
2018-03-08T08:52:44.304Z,11.90
2018-03-08T08:56:47.614Z,12.30
2018-03-08T09:00:50.585Z,11.80
2018-03-08T09:04:53.510Z,10.30
2018-03-08T09:08:56.919Z,9.10
2018-03-08T09:12:59.492Z,8.40
2018-03-08T09:17:02.457Z,7.70
2018-03-08T09:21:05.828Z,7.30
2018-03-08T09:25:08.886Z,7.10
2018-03-08T09:29:11.816Z,7.00
2018-03-08T09:33:14.760Z,7.10
2018-03-08T09:37:20.774Z,7.30
2018-03-08T09:41:23.423Z,7.60
2018-03-08T09:45:26.707Z,8.20
2018-03-08T09:49:29.669Z,8.90
2018-03-08T09:53:32.572Z,8.80
2018-03-08T09:57:35.531Z,8.10
2018-03-08T10:01:38.058Z,7.70
2018-03-08T10:05:41.018Z,7.70
2018-03-08T10:09:45.310Z,8.60
2018-03-08T10:13:47.974Z,9.30
2018-03-08T10:17:50.508Z,8.90
2018-03-08T10:21:53.055Z,8.40
2018-03-08T10:25:55.974Z,8.20
2018-03-08T10:29:58.532Z,8.20
2018-03-08T10:34:01.049Z,8.00
2018-03-08T10:38:03.578Z,8.80
2018-03-08T10:42:06.514Z,9.90
2018-03-08T10:46:09.479Z,9.40
2018-03-08T10:50:12.014Z,9.10
2018-03-08T10:54:15.014Z,8.80
2018-03-08T10:58:18.344Z,8.50
2018-03-08T11:02:26.658Z,8.50
2018-03-08T11:06:29.948Z,8.30
2018-03-08T11:10:32.890Z,8.10
2018-03-08T11:14:36.536Z,8.10
2018-03-08T11:18:39.205Z,8.10
2018-03-08T11:22:42.126Z,8.10
2018-03-08T11:26:45.445Z,8.30
2018-03-08T11:30:48.730Z,8.40
2018-03-08T11:34:51.786Z,8.60
2018-03-08T11:38:55.119Z,8.50
2018-03-08T11:42:58.443Z,8.50
2018-03-08T11:47:02.212Z,8.70
2018-03-08T11:51:03.973Z,8.70
2018-03-08T11:55:06.508Z,8.80
2018-03-08T11:59:09.440Z,9.30
2018-03-08T12:03:12.382Z,9.90
2018-03-08T12:07:15.693Z,10.20
2018-03-08T12:11:18.995Z,10.40
2018-03-08T12:15:21.958Z,10.80
2018-03-08T12:19:24.884Z,10.70
2018-03-08T12:23:27.819Z,10.40
2018-03-08T12:27:31.162Z,9.80
2018-03-08T12:31:34.714Z,9.60
2018-03-08T12:35:38.005Z,9.20
2018-03-08T12:39:40.982Z,9.00
2018-03-08T12:43:43.506Z,8.70
2018-03-08T12:47:46.826Z,8.50
2018-03-08T12:51:49.334Z,8.50
2018-03-08T12:55:52.584Z,8.50
2018-03-08T12:59:55.861Z,8.40
2018-03-08T13:03:58.884Z,8.40
2018-03-08T13:08:01.788Z,8.40
2018-03-08T13:12:04.802Z,8.50
2018-03-08T13:16:08.109Z,8.70
2018-03-08T13:20:11.062Z,8.70
2018-03-08T13:24:13.986Z,8.60
2018-03-08T13:28:16.946Z,8.60
2018-03-08T13:32:19.865Z,8.50
2018-03-08T13:36:22.439Z,8.60
2018-03-08T13:40:24.950Z,8.60
2018-03-08T13:44:27.934Z,8.60
2018-03-08T13:48:30.866Z,8.60
2018-03-08T13:52:35.301Z,8.60
2018-03-08T13:56:38.207Z,8.60
2018-03-08T14:00:41.238Z,8.70
2018-03-08T14:04:43.752Z,8.70
2018-03-08T14:08:46.722Z,8.60
2018-03-08T14:12:49.708Z,8.60
2018-03-08T14:16:52.226Z,8.60
2018-03-08T14:20:55.150Z,8.70
2018-03-08T14:24:58.490Z,8.70
2018-03-08T14:29:01.467Z,8.70
2018-03-08T14:33:04.777Z,8.60
2018-03-08T14:41:16.093Z,8.60
2018-03-08T14:45:19.011Z,8.70
2018-03-08T14:49:22.728Z,8.70
2018-03-08T14:53:25.274Z,8.80
2018-03-08T14:57:28.595Z,8.80
2018-03-08T15:01:31.566Z,8.70
2018-03-08T15:05:34.146Z,8.70
2018-03-08T15:09:37.432Z,8.60
2018-03-08T15:13:40.749Z,8.60
2018-03-08T15:17:43.679Z,8.60
2018-03-08T15:21:46.991Z,8.60
2018-03-08T15:25:49.512Z,8.60
2018-03-08T15:29:52.458Z,8.50
2018-03-08T15:33:55.751Z,8.40
2018-03-08T15:37:58.720Z,8.50
2018-03-08T15:42:02.107Z,8.50
2018-03-08T15:46:05.435Z,8.50
2018-03-08T15:50:08.720Z,8.50
2018-03-08T15:54:11.681Z,8.50
2018-03-08T15:58:14.979Z,8.50
2018-03-08T16:02:23.768Z,8.60
2018-03-08T16:11:07.806Z,8.30
2018-03-08T16:15:10.846Z,8.10
2018-03-08T16:19:13.444Z,8.10
2018-03-08T16:23:17.936Z,8.00
2018-03-08T16:27:22.406Z,8.00
2018-03-08T16:31:24.928Z,8.00
2018-03-08T16:35:28.148Z,8.00
2018-03-08T16:39:30.674Z,8.00
2018-03-08T16:43:34.896Z,7.90
2018-03-08T16:47:40.889Z,7.90
2018-03-08T16:51:43.937Z,7.70
2018-03-08T16:55:46.848Z,7.60
2018-03-08T16:59:50.248Z,7.50
2018-03-08T17:03:53.582Z,7.40
2018-03-08T17:07:56.976Z,7.30
2018-03-08T17:11:59.890Z,7.30
2018-03-08T17:16:02.527Z,7.20
2018-03-08T17:20:06.315Z,7.20
2018-03-08T17:24:09.299Z,7.00
2018-03-08T17:28:11.804Z,7.00
2018-03-08T17:32:14.372Z,7.00
2018-03-08T17:36:18.414Z,6.90
2018-03-08T17:40:21.840Z,6.60
2018-03-08T17:44:24.365Z,6.30
2018-03-08T17:48:26.936Z,6.10
2018-03-08T17:52:29.840Z,6.10
2018-03-08T17:56:33.273Z,6.00
2018-03-08T18:00:36.193Z,5.80
2018-03-08T18:04:40.320Z,5.60
2018-03-08T18:08:43.261Z,5.40
2018-03-08T18:12:46.576Z,5.30
2018-03-08T18:16:49.878Z,5.30
2018-03-08T18:20:53.306Z,5.30
2018-03-08T18:24:56.255Z,5.40
2018-03-08T18:28:59.250Z,5.50
2018-03-08T18:33:02.205Z,5.50
2018-03-08T18:37:08.697Z,5.50
2018-03-08T18:41:11.615Z,5.60
2018-03-08T18:45:14.948Z,5.40
2018-03-08T18:49:17.864Z,5.40
2018-03-08T18:53:23.119Z,5.40
2018-03-08T18:57:26.422Z,5.30
2018-03-08T19:01:29.368Z,5.20
2018-03-08T19:05:32.292Z,5.30
2018-03-08T19:09:35.718Z,5.30
2018-03-08T19:13:39.018Z,5.20
2018-03-08T19:17:42.347Z,5.20
2018-03-08T19:21:45.843Z,5.20
2018-03-08T19:25:48.877Z,5.10
2018-03-08T19:29:52.195Z,5.00
2018-03-08T19:33:55.757Z,5.00
2018-03-08T19:37:58.698Z,4.90
2018-03-08T19:42:02.126Z,4.90
2018-03-08T19:46:04.666Z,5.00
2018-03-08T19:50:07.222Z,4.90
2018-03-08T19:54:10.197Z,5.00
2018-03-08T19:58:13.132Z,4.90
2018-03-08T20:02:16.123Z,4.80
2018-03-08T20:06:18.760Z,4.90
2018-03-08T20:10:21.343Z,5.00
2018-03-08T20:14:23.920Z,5.00
2018-03-08T20:18:27.212Z,5.10
2018-03-08T20:22:30.262Z,5.00
2018-03-08T20:26:32.778Z,5.00
2018-03-08T20:30:35.332Z,4.90
2018-03-08T20:34:39.666Z,4.80
2018-03-08T20:38:42.248Z,4.70
2018-03-08T20:42:45.179Z,4.70
2018-03-08T20:46:48.566Z,4.60
2018-03-08T20:51:01.779Z,4.60
2018-03-08T20:55:04.376Z,4.50
2018-03-08T20:59:07.376Z,4.40
2018-03-08T21:03:10.754Z,4.30
2018-03-08T21:07:14.056Z,4.20
2018-03-08T21:11:16.606Z,4.20
2018-03-08T21:15:19.967Z,4.10
2018-03-08T21:19:22.904Z,4.00
2018-03-08T21:23:26.227Z,4.00
2018-03-08T21:27:28.810Z,3.90
2018-03-08T21:31:32.094Z,3.90
2018-03-08T21:35:35.734Z,3.90
2018-03-08T21:39:39.820Z,3.90
2018-03-08T21:43:42.378Z,3.90
2018-03-08T21:47:44.931Z,3.80
2018-03-08T21:51:48.236Z,3.90
2018-03-08T21:55:51.160Z,3.80
2018-03-08T21:59:55.237Z,3.80
2018-03-08T22:03:57.757Z,3.70
2018-03-08T22:08:00.322Z,3.70
2018-03-08T22:12:03.271Z,3.70
2018-03-08T22:16:06.312Z,3.70
2018-03-08T22:20:09.884Z,3.60
2018-03-08T22:24:12.827Z,3.60
2018-03-08T22:28:17.735Z,3.60
2018-03-08T22:32:21.816Z,3.50
2018-03-08T22:36:25.097Z,3.50
2018-03-08T22:44:37.196Z,3.40
2018-03-08T22:48:39.775Z,3.40
2018-03-08T22:52:42.719Z,3.30
2018-03-08T22:56:45.260Z,3.30
2018-03-08T23:00:48.186Z,3.30
2018-03-08T23:04:51.870Z,3.30
2018-03-08T23:08:54.787Z,3.30
2018-03-08T23:12:57.761Z,3.30
2018-03-08T23:17:00.280Z,3.30
2018-03-08T23:21:02.831Z,3.30
2018-03-08T23:25:06.127Z,3.30
2018-03-08T23:29:09.530Z,3.30
2018-03-08T23:33:12.841Z,3.30
2018-03-08T23:37:16.145Z,3.30
2018-03-08T23:41:18.678Z,3.20
2018-03-08T23:45:22.656Z,3.30
2018-03-08T23:49:25.944Z,3.30
2018-03-08T23:53:28.903Z,3.30
2018-03-08T23:57:31.436Z,3.30
